Skip Navigation Links Skip Navigation Links

Current Weather

New River Valley, Dublin, Va.

For information only: do not use for flight planning or navigation.
Latest weather
Observation time Wednesday, February 20, 2019 12:35 PM EST
Local time Wednesday, February 20, 2019 12:57 PM EST
Flight conditions Instrument Meteorological Conditions
Winds
Wind direction East (90°)
Wind speed 5 mph
Visibility 1.5 mi.
Present weather unknown precipitation
Sky condition
Ceiling 500 ft. overcast
Cloud layer overcast 500 ft.
Temperature 33°F
Dewpoint 33°F
Altimeter 30.27 in.Hg
Precipitation
Precipitation last hour 0.01 in.
Derived measurements
Relative humidity 99%
Wind chill 29°F
Density altitude 27 ft.
Remarks
Fully automated report.
Automated weather observing station with precipitation discriminator.
METAR KPSK 201735Z AUTO 09004KT 1 1/2SM UP OVC005 01/00 A3027 RMK AO2 P0001 T00050004

Settings

Location code

InnerDrive.Weather 4.0.6770.0 Release CLR 4.0.30319.42000
Copyright ©2018 Inner Drive Technology. All rights reserved. Portions Copyright ©1986-2018 David Braverman.

Find weather

Site navigation


Skip Navigation Links

Place info

Page info

PayPal - The safer, easier way to pay online!

Return home.

Copyright ©2019 Inner Drive Technology. Purveyors of fine, hand-crafted computer software. Page printed 2019-02-20T17:57:09 UTC.